createdAt,value
2019-05-02T00:01:24.260Z,125.73
2019-05-02T00:04:19.945Z,117.73
2019-05-02T00:07:14.634Z,123.87
2019-05-02T00:10:07.812Z,122.67
2019-05-02T00:12:58.859Z,130.57
2019-05-02T00:15:51.269Z,136.83
2019-05-02T00:18:42.861Z,129.30
2019-05-02T00:21:38.169Z,126.00
2019-05-02T00:24:27.336Z,127.97
2019-05-02T00:27:18.891Z,128.00
2019-05-02T00:30:12.433Z,131.63
2019-05-02T00:33:04.199Z,123.53
2019-05-02T00:35:55.738Z,119.77
2019-05-02T00:38:48.941Z,114.23
2019-05-02T00:41:40.556Z,124.63
2019-05-02T00:44:34.352Z,132.90
2019-05-02T00:47:47.613Z,128.97
2019-05-02T00:50:40.692Z,123.50
2019-05-02T00:53:33.143Z,141.47
2019-05-02T00:56:24.740Z,135.33
2019-05-02T00:59:16.466Z,146.57
2019-05-02T01:02:29.889Z,137.90
2019-05-02T01:05:21.525Z,134.53
2019-05-02T01:08:13.041Z,144.27
2019-05-02T01:11:04.462Z,144.57
2019-05-02T01:14:15.773Z,149.77
2019-05-02T01:17:07.920Z,147.90
2019-05-02T01:19:59.792Z,147.10
2019-05-02T01:22:52.222Z,135.83
2019-05-02T01:25:47.229Z,124.50
2019-05-02T01:28:55.711Z,135.53
2019-05-02T01:32:03.499Z,133.30
2019-05-02T01:35:09.358Z,131.87
2019-05-02T01:38:26.287Z,110.87
2019-05-02T01:41:19.240Z,121.37
2019-05-02T01:44:11.487Z,115.93
2019-05-02T01:47:02.815Z,110.90
2019-05-02T01:49:57.146Z,117.97
2019-05-02T01:52:47.489Z,116.40
2019-05-02T01:55:39.179Z,113.13
2019-05-02T01:58:30.938Z,107.07
2019-05-02T02:01:23.341Z,110.10
2019-05-02T02:04:16.305Z,122.47
2019-05-02T02:07:08.232Z,131.67
2019-05-02T02:09:59.712Z,119.70
2019-05-02T02:13:03.209Z,120.80
2019-05-02T02:15:44.258Z,106.93
2019-05-02T02:18:40.059Z,106.97
2019-05-02T02:21:37.820Z,106.70
2019-05-02T02:24:38.400Z,116.03
2019-05-02T02:27:29.305Z,121.67
2019-05-02T02:30:24.494Z,112.80
2019-05-02T02:33:14.927Z,114.63
2019-05-02T02:36:06.300Z,104.03
2019-05-02T02:38:57.665Z,97.27
2019-05-02T02:41:52.149Z,110.43
2019-05-02T02:45:13.061Z,116.67
2019-05-02T02:48:03.964Z,123.87
2019-05-02T02:50:56.071Z,104.57
2019-05-02T02:53:47.653Z,103.30
2019-05-02T02:56:40.606Z,108.83
2019-05-02T02:59:32.921Z,124.87
2019-05-02T03:02:24.218Z,160.10
2019-05-02T03:05:18.885Z,152.20
2019-05-02T03:08:08.604Z,141.77
2019-05-02T03:11:00.133Z,126.43
2019-05-02T03:14:16.627Z,122.53
2019-05-02T03:17:07.991Z,119.20
2019-05-02T03:20:02.179Z,118.87
2019-05-02T03:22:54.236Z,125.97
2019-05-02T03:25:50.812Z,137.83
2019-05-02T03:28:38.989Z,145.27
2019-05-02T03:31:31.536Z,138.00
2019-05-02T03:34:24.022Z,144.73
2019-05-02T03:37:15.618Z,139.60
2019-05-02T03:40:07.630Z,149.63
2019-05-02T03:42:59.843Z,157.37
2019-05-02T03:45:51.221Z,156.17
2019-05-02T03:48:43.021Z,148.43
2019-05-02T03:51:34.847Z,148.50
2019-05-02T03:54:26.510Z,153.30
2019-05-02T03:57:17.888Z,159.43
2019-05-02T04:00:13.968Z,163.33
2019-05-02T04:03:02.721Z,145.77
2019-05-02T04:05:54.166Z,158.93
2019-05-02T04:08:46.537Z,181.03
2019-05-02T04:11:40.685Z,156.87
2019-05-02T04:14:37.915Z,166.23
2019-05-02T04:17:29.139Z,160.17
2019-05-02T04:20:17.739Z,173.57
2019-05-02T04:23:10.388Z,175.87
2019-05-02T04:26:06.656Z,156.63
2019-05-02T04:28:55.518Z,169.30
2019-05-02T04:31:47.029Z,185.43
2019-05-02T04:34:38.688Z,172.80
2019-05-02T04:37:34.422Z,180.90
2019-05-02T04:40:23.085Z,183.33
2019-05-02T04:43:14.499Z,182.37
2019-05-02T04:46:09.323Z,167.17
2019-05-02T04:48:59.058Z,169.17
2019-05-02T04:51:59.856Z,176.77
2019-05-02T04:54:43.573Z,169.73
2019-05-02T04:57:39.306Z,167.27
2019-05-02T05:00:29.442Z,167.17
2019-05-02T05:03:21.248Z,173.53
2019-05-02T05:06:12.761Z,171.60
2019-05-02T05:09:10.389Z,177.90
2019-05-02T05:12:02.450Z,182.23
2019-05-02T05:14:51.844Z,183.57
2019-05-02T05:17:43.269Z,179.70
2019-05-02T05:20:37.713Z,178.07
2019-05-02T05:23:51.842Z,172.23
2019-05-02T05:26:44.679Z,183.83
2019-05-02T05:29:37.481Z,165.20
2019-05-02T05:32:28.998Z,170.20
2019-05-02T05:35:20.364Z,159.00
2019-05-02T05:38:11.683Z,168.10
2019-05-02T05:41:08.170Z,160.37
2019-05-02T05:43:57.322Z,162.47
2019-05-02T05:46:49.548Z,161.43
2019-05-02T05:49:41.265Z,158.87
2019-05-02T05:52:33.207Z,159.63
2019-05-02T05:55:25.662Z,159.03
2019-05-02T05:58:18.737Z,164.23
2019-05-02T06:01:10.973Z,149.03
2019-05-02T06:04:02.565Z,147.20
2019-05-02T06:06:58.846Z,143.03
2019-05-02T06:09:47.283Z,147.23
2019-05-02T06:12:38.754Z,142.10
2019-05-02T06:15:33.872Z,140.77
2019-05-02T06:18:23.439Z,145.77
2019-05-02T06:21:17.055Z,147.37
2019-05-02T06:24:10.987Z,136.33
2019-05-02T06:27:02.277Z,136.23
2019-05-02T06:29:56.207Z,135.37
2019-05-02T06:32:49.994Z,134.33
2019-05-02T06:35:40.074Z,117.97
2019-05-02T06:38:31.707Z,128.47
2019-05-02T06:41:23.309Z,123.00
2019-05-02T06:44:18.394Z,124.17
2019-05-02T06:47:07.571Z,114.60
2019-05-02T06:50:01.202Z,108.83
2019-05-02T06:52:51.985Z,116.67
2019-05-02T06:55:43.350Z,113.30
2019-05-02T06:58:37.151Z,106.40
2019-05-02T07:01:28.500Z,102.67
2019-05-02T07:04:22.782Z,114.93
2019-05-02T07:07:13.848Z,109.63
2019-05-02T07:10:07.471Z,110.83
2019-05-02T07:13:09.975Z,102.80
2019-05-02T07:16:16.215Z,111.37
2019-05-02T07:19:32.574Z,103.87
2019-05-02T07:22:24.211Z,105.07
2019-05-02T07:25:18.099Z,103.10
2019-05-02T07:28:10.773Z,99.17
2019-05-02T07:31:06.497Z,95.77
2019-05-02T07:33:56.210Z,95.50
2019-05-02T07:36:48.078Z,90.83
2019-05-02T07:39:41.055Z,89.10
2019-05-02T07:42:36.914Z,92.30
2019-05-02T07:45:26.123Z,88.50
2019-05-02T07:48:18.939Z,88.47
2019-05-02T07:51:10.516Z,85.60
2019-05-02T07:54:01.982Z,88.03
2019-05-02T07:56:54.598Z,82.73
2019-05-02T07:59:46.281Z,85.73
2019-05-02T08:02:38.098Z,80.57
2019-05-02T08:05:29.503Z,79.63
2019-05-02T08:08:25.133Z,83.33
2019-05-02T08:11:15.401Z,79.70
2019-05-02T08:14:06.839Z,77.23
2019-05-02T08:17:05.485Z,73.80
2019-05-02T08:19:51.666Z,71.80
2019-05-02T08:22:48.511Z,75.20
2019-05-02T08:25:36.699Z,72.07
2019-05-02T08:28:40.440Z,73.37
2019-05-02T08:31:32.837Z,74.07
2019-05-02T08:34:32.459Z,68.50
2019-05-02T08:37:24.012Z,70.00
2019-05-02T08:40:15.559Z,69.20
2019-05-02T08:43:09.003Z,68.97
2019-05-02T08:45:59.934Z,67.70
2019-05-02T08:48:51.576Z,74.97
2019-05-02T08:51:43.179Z,69.60
2019-05-02T08:54:34.774Z,65.57
2019-05-02T08:57:29.967Z,63.97
2019-05-02T09:00:19.518Z,64.73
2019-05-02T09:03:10.972Z,67.03
2019-05-02T09:06:05.949Z,60.93
2019-05-02T09:08:55.818Z,66.53
2019-05-02T09:12:02.409Z,57.47
2019-05-02T09:14:42.616Z,68.77
2019-05-02T09:17:38.477Z,58.90
2019-05-02T09:20:28.841Z,60.00
2019-05-02T09:23:20.279Z,58.17
2019-05-02T09:26:12.873Z,43.97
2019-05-02T09:29:05.550Z,36.47
2019-05-02T09:31:57.962Z,34.63
2019-05-02T09:34:51.858Z,39.73
2019-05-02T09:37:43.903Z,32.83
2019-05-02T09:40:36.189Z,27.70
2019-05-02T09:43:29.412Z,26.90
2019-05-02T09:46:21.762Z,24.97
2019-05-02T09:49:16.347Z,23.57
2019-05-02T09:52:06.424Z,23.80
2019-05-02T09:54:58.121Z,25.90
2019-05-02T09:57:51.906Z,26.70
2019-05-02T10:01:07.202Z,31.47
2019-05-02T10:03:58.790Z,34.47
2019-05-02T10:06:52.292Z,30.73
2019-05-02T10:09:43.151Z,34.13
2019-05-02T10:12:34.623Z,37.13
2019-05-02T10:15:26.238Z,34.70
2019-05-02T10:18:19.618Z,32.80
2019-05-02T10:21:13.517Z,40.07
2019-05-02T10:24:03.869Z,37.37
2019-05-02T10:27:04.033Z,37.90
2019-05-02T10:29:48.906Z,35.80
2019-05-02T10:32:42.606Z,41.03
2019-05-02T10:35:40.569Z,44.37
2019-05-02T10:38:32.369Z,46.90
2019-05-02T10:41:23.675Z,53.63
2019-05-02T10:44:15.460Z,56.00
2019-05-02T10:47:07.807Z,60.73
2019-05-02T10:50:03.912Z,61.97
2019-05-02T10:52:55.541Z,63.33
2019-05-02T10:55:47.595Z,59.73
2019-05-02T10:58:39.005Z,56.10
2019-05-02T11:01:33.941Z,51.43
2019-05-02T11:04:29.193Z,55.87
2019-05-02T11:07:22.618Z,50.23
2019-05-02T11:10:12.303Z,56.87
2019-05-02T11:13:42.582Z,54.30
2019-05-02T11:16:42.324Z,54.80
2019-05-02T11:19:56.028Z,49.93
2019-05-02T11:22:47.247Z,42.77
2019-05-02T11:25:39.035Z,48.13
2019-05-02T11:28:32.350Z,43.70
2019-05-02T11:31:24.671Z,45.60
2019-05-02T11:34:16.664Z,52.10
2019-05-02T11:37:08.398Z,50.63
2019-05-02T11:40:02.108Z,48.00
2019-05-02T11:42:57.230Z,42.20
2019-05-02T11:45:46.603Z,55.23
2019-05-02T11:48:38.344Z,56.03
2019-05-02T11:51:32.586Z,56.50
2019-05-02T11:54:23.771Z,52.73
2019-05-02T11:57:15.102Z,52.23
2019-05-02T12:00:09.023Z,53.33
2019-05-02T12:03:16.765Z,53.23
2019-05-02T12:06:12.216Z,51.43
2019-05-02T12:09:02.206Z,55.03
2019-05-02T12:11:56.593Z,56.07
2019-05-02T12:14:49.153Z,53.57
2019-05-02T12:17:41.967Z,64.87
2019-05-02T12:20:36.596Z,57.70
2019-05-02T12:23:26.871Z,58.23
2019-05-02T12:26:18.530Z,55.50
2019-05-02T12:29:09.847Z,60.10
2019-05-02T12:32:02.610Z,54.90
2019-05-02T12:34:54.070Z,68.10
2019-05-02T12:37:47.105Z,63.07
2019-05-02T12:40:39.693Z,61.23
2019-05-02T12:43:31.891Z,59.70
2019-05-02T12:46:23.546Z,63.67
2019-05-02T12:49:24.539Z,65.17
2019-05-02T12:52:08.525Z,59.37
2019-05-02T12:55:02.115Z,66.30
2019-05-02T12:57:55.076Z,66.73
2019-05-02T13:00:46.378Z,68.37
2019-05-02T13:04:06.635Z,67.80
2019-05-02T13:06:58.159Z,64.27
2019-05-02T13:09:52.260Z,66.97
2019-05-02T13:12:44.647Z,57.53
2019-05-02T13:15:36.620Z,43.70
2019-05-02T13:18:34.800Z,45.30
2019-05-02T13:21:39.204Z,51.57
2019-05-02T13:24:29.217Z,40.40
2019-05-02T13:27:18.760Z,37.43
2019-05-02T13:30:17.494Z,35.40
2019-05-02T13:33:12.266Z,30.70
2019-05-02T13:36:03.733Z,32.70
2019-05-02T13:38:55.332Z,34.07
2019-05-02T13:41:47.710Z,31.53
2019-05-02T13:44:46.137Z,27.57
2019-05-02T13:47:37.602Z,25.40
2019-05-02T13:50:29.259Z,24.20
2019-05-02T13:53:22.635Z,20.57
2019-05-02T13:56:45.432Z,22.73
2019-05-02T13:59:37.042Z,16.77
2019-05-02T14:02:37.895Z,18.47
2019-05-02T14:05:31.703Z,24.73
2019-05-02T14:08:44.577Z,20.87
2019-05-02T14:12:01.944Z,25.50
2019-05-02T14:14:53.680Z,24.43
2019-05-02T14:17:45.043Z,20.07
2019-05-02T14:20:37.479Z,18.63
2019-05-02T14:23:29.293Z,17.20
2019-05-02T14:26:29.625Z,16.90
2019-05-02T14:29:16.285Z,16.60
2019-05-02T14:32:20.394Z,12.50
2019-05-02T14:35:18.623Z,11.70
2019-05-02T14:38:19.471Z,10.00
2019-05-02T14:41:16.081Z,12.73
2019-05-02T14:44:08.471Z,13.80
2019-05-02T14:47:02.096Z,14.80
2019-05-02T14:49:56.625Z,13.17
2019-05-02T14:52:47.341Z,15.03
2019-05-02T14:55:42.107Z,9.40
2019-05-02T14:58:37.683Z,10.07
2019-05-02T15:01:28.000Z,7.77
2019-05-02T15:04:22.550Z,7.93
2019-05-02T15:07:17.655Z,9.93
2019-05-02T15:10:06.790Z,11.43
2019-05-02T15:13:00.106Z,10.23
2019-05-02T15:15:53.074Z,12.13
2019-05-02T15:18:47.582Z,10.90
2019-05-02T15:21:46.950Z,12.57
2019-05-02T15:24:38.067Z,14.27
2019-05-02T15:27:40.176Z,12.70
2019-05-02T15:30:24.137Z,12.83
2019-05-02T15:33:17.028Z,9.10
2019-05-02T15:36:09.349Z,13.47
2019-05-02T15:41:55.564Z,10.37
2019-05-02T15:44:47.353Z,11.50
2019-05-02T15:47:41.576Z,9.63
2019-05-02T15:50:32.630Z,10.50
2019-05-02T15:53:44.648Z,12.27
2019-05-02T15:56:35.537Z,9.50
2019-05-02T15:59:37.635Z,11.17
2019-05-02T16:02:27.673Z,13.53
2019-05-02T16:05:22.175Z,10.97
2019-05-02T16:08:13.362Z,16.00
2019-05-02T16:11:08.829Z,14.13
2019-05-02T16:13:57.981Z,9.33
2019-05-02T16:16:49.794Z,11.67
2019-05-02T16:19:46.620Z,12.33
2019-05-02T16:22:43.100Z,10.13
2019-05-02T16:25:32.031Z,12.10
2019-05-02T16:28:24.146Z,12.03
2019-05-02T16:31:17.076Z,13.47
2019-05-02T16:34:08.578Z,15.00
2019-05-02T16:37:13.432Z,18.67
2019-05-02T16:40:03.273Z,18.73
2019-05-02T16:42:56.061Z,16.60
2019-05-02T16:45:47.567Z,14.60
2019-05-02T16:48:39.199Z,10.83
2019-05-02T16:51:34.498Z,13.13
2019-05-02T16:54:23.958Z,13.17
2019-05-02T16:57:17.336Z,17.30
2019-05-02T17:00:11.340Z,17.13
2019-05-02T17:03:03.968Z,14.30
2019-05-02T17:05:55.708Z,23.23
2019-05-02T17:08:58.335Z,17.90
2019-05-02T17:11:49.297Z,16.47
2019-05-02T17:14:53.446Z,17.07
2019-05-02T17:17:37.158Z,19.07
2019-05-02T17:20:31.818Z,18.10
2019-05-02T17:23:23.134Z,16.80
2019-05-02T17:26:14.460Z,13.67
2019-05-02T17:29:06.176Z,12.87
2019-05-02T17:31:59.219Z,17.37
2019-05-02T17:34:52.326Z,15.13
2019-05-02T17:37:48.818Z,15.80
2019-05-02T17:40:37.431Z,15.87
2019-05-02T17:43:28.881Z,13.73
2019-05-02T17:46:23.663Z,14.57
2019-05-02T17:49:12.913Z,15.20
2019-05-02T17:52:35.536Z,13.03
2019-05-02T17:55:26.957Z,14.10
2019-05-02T17:58:18.331Z,15.00
2019-05-02T18:01:14.705Z,13.47
2019-05-02T18:04:12.761Z,16.13
2019-05-02T18:06:59.387Z,14.07
2019-05-02T18:09:52.461Z,20.13
2019-05-02T18:12:47.206Z,16.20
2019-05-02T18:15:38.639Z,16.73
2019-05-02T18:18:31.955Z,18.23
2019-05-02T18:21:26.983Z,17.60
2019-05-02T18:24:16.360Z,17.67
2019-05-02T18:27:08.237Z,21.10
2019-05-02T18:30:02.107Z,20.00
2019-05-02T18:32:57.892Z,24.07
2019-05-02T18:35:47.692Z,19.27
2019-05-02T18:38:39.324Z,20.90
2019-05-02T18:41:31.843Z,22.57
2019-05-02T18:44:24.439Z,19.77
2019-05-02T18:47:20.305Z,21.07
2019-05-02T18:50:46.969Z,16.37
2019-05-02T18:53:37.378Z,22.10
2019-05-02T18:56:33.971Z,19.20
2019-05-02T18:59:25.462Z,26.93
2019-05-02T19:02:15.437Z,24.53
2019-05-02T19:05:13.434Z,26.33
2019-05-02T19:08:02.446Z,21.10
2019-05-02T19:11:05.316Z,23.77
2019-05-02T19:13:47.870Z,20.63
2019-05-02T19:16:39.895Z,26.23
2019-05-02T19:19:33.020Z,20.80
2019-05-02T19:22:23.927Z,21.43
2019-05-02T19:25:15.661Z,22.27
2019-05-02T19:28:13.980Z,26.00
2019-05-02T19:31:07.035Z,28.63
2019-05-02T19:33:58.975Z,26.73
2019-05-02T19:36:50.332Z,32.53
2019-05-02T19:39:48.644Z,26.00
2019-05-02T19:42:37.179Z,29.20
2019-05-02T19:45:28.840Z,30.20
2019-05-02T19:48:22.543Z,28.77
2019-05-02T19:51:18.479Z,33.97
2019-05-02T19:54:07.474Z,27.83
2019-05-02T19:56:58.761Z,31.80
2019-05-02T19:59:52.381Z,26.23
2019-05-02T20:02:43.868Z,29.90
2019-05-02T20:05:35.698Z,32.73
2019-05-02T20:08:27.119Z,31.33
2019-05-02T20:11:18.603Z,27.17
2019-05-02T20:14:10.124Z,33.10
2019-05-02T20:17:02.367Z,32.90
2019-05-02T20:19:57.661Z,30.47
2019-05-02T20:22:49.442Z,32.33
2019-05-02T20:25:42.628Z,29.03
2019-05-02T20:28:33.922Z,30.87
2019-05-02T20:31:25.376Z,30.20
2019-05-02T20:34:17.059Z,30.40
2019-05-02T20:37:08.566Z,30.70
2019-05-02T20:39:59.908Z,32.27
2019-05-02T20:42:52.762Z,29.73
2019-05-02T20:45:46.202Z,26.20
2019-05-02T20:48:37.953Z,26.60
2019-05-02T20:51:29.281Z,30.23
2019-05-02T20:54:20.655Z,27.67
2019-05-02T20:57:12.142Z,33.83
2019-05-02T21:00:03.642Z,32.23
2019-05-02T21:02:55.258Z,33.47
2019-05-02T21:05:53.464Z,35.13
2019-05-02T21:09:02.607Z,33.73
2019-05-02T21:12:01.999Z,38.00
2019-05-02T21:14:53.695Z,39.27
2019-05-02T21:17:45.246Z,37.83
2019-05-02T21:20:37.130Z,35.70
2019-05-02T21:23:40.666Z,34.07
2019-05-02T21:26:22.208Z,33.67
2019-05-02T21:29:14.587Z,37.40
2019-05-02T21:32:07.000Z,34.97
2019-05-02T21:34:58.464Z,39.63
2019-05-02T21:37:49.961Z,42.47
2019-05-02T21:40:42.306Z,42.13
2019-05-02T21:43:34.131Z,36.97
2019-05-02T21:46:25.435Z,39.57
2019-05-02T21:49:36.026Z,37.30
2019-05-02T21:52:37.032Z,36.53
2019-05-02T21:55:54.077Z,44.80
2019-05-02T21:59:03.036Z,46.47
2019-05-02T22:01:58.215Z,40.50
2019-05-02T22:04:49.803Z,36.90
2019-05-02T22:07:41.989Z,40.80
2019-05-02T22:10:33.362Z,39.97
2019-05-02T22:13:25.912Z,37.47
2019-05-02T22:16:17.247Z,40.97
2019-05-02T22:19:09.864Z,37.57
2019-05-02T22:22:01.657Z,34.37
2019-05-02T22:24:54.537Z,36.33
2019-05-02T22:27:46.115Z,42.03
2019-05-02T22:30:37.577Z,42.40
2019-05-02T22:33:29.171Z,35.93
2019-05-02T22:36:21.772Z,36.50
2019-05-02T22:39:31.708Z,29.30
2019-05-02T22:42:23.895Z,33.97
2019-05-02T22:45:15.464Z,32.93
2019-05-02T22:48:06.782Z,28.57
2019-05-02T22:50:58.588Z,30.30
2019-05-02T22:53:52.100Z,33.53
2019-05-02T22:56:43.264Z,32.23
2019-05-02T22:59:35.434Z,32.13
2019-05-02T23:02:27.716Z,27.77
2019-05-02T23:05:19.445Z,26.33
2019-05-02T23:08:12.490Z,33.17
2019-05-02T23:11:04.391Z,26.80
2019-05-02T23:13:56.074Z,28.23
2019-05-02T23:16:47.648Z,25.90
2019-05-02T23:19:39.288Z,23.07
2019-05-02T23:22:32.356Z,22.87
2019-05-02T23:25:42.542Z,20.03
2019-05-02T23:28:36.041Z,33.07
2019-05-02T23:31:28.109Z,24.40
2019-05-02T23:34:23.259Z,22.73
2019-05-02T23:37:13.024Z,20.27
2019-05-02T23:40:04.535Z,22.40
2019-05-02T23:42:56.160Z,22.80
2019-05-02T23:45:47.565Z,20.23
2019-05-02T23:48:39.223Z,23.43
2019-05-02T23:51:32.120Z,19.50
2019-05-02T23:54:23.808Z,23.53
2019-05-02T23:57:15.316Z,16.00
